sensor_id;sensor_type;location;lat;lon;timestamp;P1;durP1;ratioP1;P2;durP2;ratioP2
62861;SDS011;48953;53.110;5.592;2023-07-31T00:01:25;7.05;;;1.58;;
62861;SDS011;48953;53.110;5.592;2023-07-31T00:03:51;5.28;;;1.27;;
62861;SDS011;48953;53.110;5.592;2023-07-31T00:06:17;6.05;;;1.27;;
62861;SDS011;48953;53.110;5.592;2023-07-31T00:08:43;5.40;;;1.42;;
62861;SDS011;48953;53.110;5.592;2023-07-31T00:11:09;8.88;;;1.60;;
62861;SDS011;48953;53.110;5.592;2023-07-31T00:13:35;4.55;;;1.40;;
62861;SDS011;48953;53.110;5.592;2023-07-31T00:16:01;4.05;;;1.30;;
62861;SDS011;48953;53.110;5.592;2023-07-31T00:18:27;8.32;;;1.80;;
62861;SDS011;48953;53.110;5.592;2023-07-31T00:20:53;6.15;;;1.48;;
62861;SDS011;48953;53.110;5.592;2023-07-31T00:23:19;6.68;;;1.50;;
62861;SDS011;48953;53.110;5.592;2023-07-31T00:25:45;8.00;;;1.20;;
62861;SDS011;48953;53.110;5.592;2023-07-31T00:28:11;5.13;;;1.08;;
62861;SDS011;48953;53.110;5.592;2023-07-31T00:30:37;4.75;;;1.45;;
62861;SDS011;48953;53.110;5.592;2023-07-31T00:33:03;4.90;;;1.38;;
62861;SDS011;48953;53.110;5.592;2023-07-31T00:35:29;4.65;;;1.25;;
62861;SDS011;48953;53.110;5.592;2023-07-31T00:37:56;7.72;;;1.20;;
62861;SDS011;48953;53.110;5.592;2023-07-31T00:40:22;1.98;;;0.90;;
62861;SDS011;48953;53.110;5.592;2023-07-31T00:42:48;5.80;;;1.15;;
62861;SDS011;48953;53.110;5.592;2023-07-31T00:45:14;2.63;;;0.90;;
62861;SDS011;48953;53.110;5.592;2023-07-31T00:47:40;4.55;;;1.23;;
62861;SDS011;48953;53.110;5.592;2023-07-31T00:50:06;7.88;;;1.40;;
62861;SDS011;48953;53.110;5.592;2023-07-31T00:52:32;6.03;;;1.33;;
62861;SDS011;48953;53.110;5.592;2023-07-31T00:54:58;6.35;;;1.10;;
62861;SDS011;48953;53.110;5.592;2023-07-31T00:57:25;5.07;;;1.00;;
62861;SDS011;48953;53.110;5.592;2023-07-31T00:59:51;7.72;;;1.20;;
62861;SDS011;48953;53.110;5.592;2023-07-31T01:02:17;8.05;;;1.73;;
62861;SDS011;48953;53.110;5.592;2023-07-31T01:04:43;4.75;;;1.30;;
62861;SDS011;48953;53.110;5.592;2023-07-31T01:07:27;7.10;;;1.30;;
62861;SDS011;48953;53.110;5.592;2023-07-31T01:10:04;5.28;;;0.90;;
62861;SDS011;48953;53.110;5.592;2023-07-31T01:12:32;5.82;;;1.30;;
62861;SDS011;48953;53.110;5.592;2023-07-31T01:17:29;3.40;;;1.23;;
62861;SDS011;48953;53.110;5.592;2023-07-31T01:19:55;3.47;;;1.00;;
62861;SDS011;48953;53.110;5.592;2023-07-31T01:22:30;2.80;;;1.30;;
62861;SDS011;48953;53.110;5.592;2023-07-31T01:27:58;2.60;;;1.27;;
62861;SDS011;48953;53.110;5.592;2023-07-31T01:30:25;5.38;;;1.30;;
62861;SDS011;48953;53.110;5.592;2023-07-31T01:32:53;2.83;;;1.65;;
62861;SDS011;48953;53.110;5.592;2023-07-31T01:35:20;3.55;;;1.40;;
62861;SDS011;48953;53.110;5.592;2023-07-31T01:37:46;2.55;;;0.90;;
62861;SDS011;48953;53.110;5.592;2023-07-31T01:40:12;4.03;;;1.15;;
62861;SDS011;48953;53.110;5.592;2023-07-31T01:42:38;3.30;;;1.02;;
62861;SDS011;48953;53.110;5.592;2023-07-31T01:45:04;5.65;;;1.10;;
62861;SDS011;48953;53.110;5.592;2023-07-31T01:47:31;11.30;;;1.20;;
62861;SDS011;48953;53.110;5.592;2023-07-31T01:49:57;5.57;;;1.25;;
62861;SDS011;48953;53.110;5.592;2023-07-31T01:52:23;3.92;;;1.20;;
62861;SDS011;48953;53.110;5.592;2023-07-31T01:54:49;4.70;;;1.10;;
62861;SDS011;48953;53.110;5.592;2023-07-31T01:57:15;4.35;;;1.20;;
62861;SDS011;48953;53.110;5.592;2023-07-31T01:59:41;5.53;;;1.15;;
62861;SDS011;48953;53.110;5.592;2023-07-31T02:02:07;4.93;;;1.33;;
62861;SDS011;48953;53.110;5.592;2023-07-31T02:04:33;6.25;;;1.48;;
62861;SDS011;48953;53.110;5.592;2023-07-31T02:06:59;3.88;;;1.50;;
62861;SDS011;48953;53.110;5.592;2023-07-31T02:09:25;6.50;;;1.45;;
62861;SDS011;48953;53.110;5.592;2023-07-31T02:11:51;4.22;;;1.13;;
62861;SDS011;48953;53.110;5.592;2023-07-31T02:14:17;5.88;;;1.38;;
62861;SDS011;48953;53.110;5.592;2023-07-31T02:16:43;3.95;;;1.58;;
62861;SDS011;48953;53.110;5.592;2023-07-31T02:19:09;3.40;;;1.40;;
62861;SDS011;48953;53.110;5.592;2023-07-31T02:21:35;5.45;;;1.63;;
62861;SDS011;48953;53.110;5.592;2023-07-31T02:24:01;3.72;;;1.40;;
62861;SDS011;48953;53.110;5.592;2023-07-31T02:26:27;7.72;;;1.50;;
62861;SDS011;48953;53.110;5.592;2023-07-31T02:28:53;4.88;;;1.10;;
62861;SDS011;48953;53.110;5.592;2023-07-31T02:31:19;1.05;;;0.85;;
62861;SDS011;48953;53.110;5.592;2023-07-31T02:33:45;3.95;;;1.20;;
62861;SDS011;48953;53.110;5.592;2023-07-31T02:36:11;3.25;;;1.15;;
62861;SDS011;48953;53.110;5.592;2023-07-31T02:38:37;3.45;;;1.33;;
62861;SDS011;48953;53.110;5.592;2023-07-31T02:41:03;3.33;;;1.30;;
62861;SDS011;48953;53.110;5.592;2023-07-31T02:43:29;3.30;;;1.35;;
62861;SDS011;48953;53.110;5.592;2023-07-31T02:45:55;3.70;;;1.42;;
62861;SDS011;48953;53.110;5.592;2023-07-31T02:48:21;4.95;;;1.10;;
62861;SDS011;48953;53.110;5.592;2023-07-31T02:50:47;2.95;;;0.88;;
62861;SDS011;48953;53.110;5.592;2023-07-31T02:53:13;3.80;;;1.20;;
62861;SDS011;48953;53.110;5.592;2023-07-31T02:55:40;2.17;;;0.90;;
62861;SDS011;48953;53.110;5.592;2023-07-31T02:58:06;1.92;;;0.80;;
62861;SDS011;48953;53.110;5.592;2023-07-31T03:00:32;2.20;;;1.05;;
62861;SDS011;48953;53.110;5.592;2023-07-31T03:02:58;3.65;;;0.88;;
62861;SDS011;48953;53.110;5.592;2023-07-31T03:05:24;3.30;;;1.00;;
62861;SDS011;48953;53.110;5.592;2023-07-31T03:07:50;2.60;;;1.10;;
62861;SDS011;48953;53.110;5.592;2023-07-31T03:10:16;4.35;;;1.42;;
62861;SDS011;48953;53.110;5.592;2023-07-31T03:12:43;4.57;;;1.27;;
62861;SDS011;48953;53.110;5.592;2023-07-31T03:15:11;2.27;;;1.20;;
62861;SDS011;48953;53.110;5.592;2023-07-31T03:17:37;4.35;;;1.33;;
62861;SDS011;48953;53.110;5.592;2023-07-31T03:20:03;2.88;;;1.00;;
62861;SDS011;48953;53.110;5.592;2023-07-31T03:22:29;1.50;;;0.70;;
62861;SDS011;48953;53.110;5.592;2023-07-31T03:24:55;2.72;;;1.15;;
62861;SDS011;48953;53.110;5.592;2023-07-31T03:27:21;2.42;;;1.20;;
62861;SDS011;48953;53.110;5.592;2023-07-31T03:29:47;7.32;;;1.40;;
62861;SDS011;48953;53.110;5.592;2023-07-31T03:32:16;2.38;;;1.17;;
62861;SDS011;48953;53.110;5.592;2023-07-31T03:34:42;5.47;;;1.10;;
62861;SDS011;48953;53.110;5.592;2023-07-31T03:37:08;3.13;;;1.20;;
62861;SDS011;48953;53.110;5.592;2023-07-31T03:39:34;2.10;;;0.98;;
62861;SDS011;48953;53.110;5.592;2023-07-31T03:42:00;2.20;;;1.20;;
62861;SDS011;48953;53.110;5.592;2023-07-31T03:44:26;4.07;;;1.10;;
62861;SDS011;48953;53.110;5.592;2023-07-31T03:46:52;1.98;;;0.88;;
62861;SDS011;48953;53.110;5.592;2023-07-31T03:49:18;5.13;;;1.20;;
62861;SDS011;48953;53.110;5.592;2023-07-31T03:51:44;6.18;;;2.50;;
62861;SDS011;48953;53.110;5.592;2023-07-31T03:54:10;11.98;;;3.10;;
62861;SDS011;48953;53.110;5.592;2023-07-31T03:56:39;13.25;;;3.58;;
62861;SDS011;48953;53.110;5.592;2023-07-31T03:59:05;7.35;;;2.47;;
62861;SDS011;48953;53.110;5.592;2023-07-31T04:01:31;9.73;;;3.05;;
62861;SDS011;48953;53.110;5.592;2023-07-31T04:03:57;12.45;;;3.13;;
62861;SDS011;48953;53.110;5.592;2023-07-31T04:06:27;6.45;;;2.70;;
62861;SDS011;48953;53.110;5.592;2023-07-31T04:08:53;10.02;;;2.65;;
62861;SDS011;48953;53.110;5.592;2023-07-31T04:11:19;9.07;;;3.05;;
62861;SDS011;48953;53.110;5.592;2023-07-31T04:13:45;13.18;;;3.65;;
62861;SDS011;48953;53.110;5.592;2023-07-31T04:16:11;11.90;;;3.08;;
62861;SDS011;48953;53.110;5.592;2023-07-31T04:18:37;8.65;;;3.00;;
62861;SDS011;48953;53.110;5.592;2023-07-31T04:21:03;9.18;;;3.25;;
62861;SDS011;48953;53.110;5.592;2023-07-31T04:23:29;11.88;;;3.42;;
62861;SDS011;48953;53.110;5.592;2023-07-31T04:25:55;10.60;;;2.85;;
62861;SDS011;48953;53.110;5.592;2023-07-31T04:28:22;6.20;;;2.53;;
62861;SDS011;48953;53.110;5.592;2023-07-31T04:30:48;10.63;;;2.50;;
62861;SDS011;48953;53.110;5.592;2023-07-31T04:33:14;10.57;;;2.88;;
62861;SDS011;48953;53.110;5.592;2023-07-31T04:35:40;12.07;;;3.08;;
62861;SDS011;48953;53.110;5.592;2023-07-31T04:38:05;12.30;;;3.15;;
62861;SDS011;48953;53.110;5.592;2023-07-31T04:40:38;13.77;;;3.45;;
62861;SDS011;48953;53.110;5.592;2023-07-31T04:43:04;11.55;;;3.40;;
62861;SDS011;48953;53.110;5.592;2023-07-31T04:45:30;26.33;;;4.28;;
62861;SDS011;48953;53.110;5.592;2023-07-31T04:47:56;15.02;;;3.72;;
62861;SDS011;48953;53.110;5.592;2023-07-31T04:50:22;26.25;;;4.32;;
62861;SDS011;48953;53.110;5.592;2023-07-31T04:52:48;18.55;;;4.28;;
62861;SDS011;48953;53.110;5.592;2023-07-31T04:55:14;19.85;;;6.05;;
62861;SDS011;48953;53.110;5.592;2023-07-31T04:57:40;19.17;;;5.53;;
62861;SDS011;48953;53.110;5.592;2023-07-31T05:00:06;19.60;;;4.70;;
62861;SDS011;48953;53.110;5.592;2023-07-31T05:02:32;20.35;;;5.07;;
62861;SDS011;48953;53.110;5.592;2023-07-31T05:04:58;17.40;;;5.13;;
62861;SDS011;48953;53.110;5.592;2023-07-31T05:07:24;16.67;;;4.57;;
62861;SDS011;48953;53.110;5.592;2023-07-31T05:09:50;21.30;;;4.07;;
62861;SDS011;48953;53.110;5.592;2023-07-31T05:12:16;16.02;;;4.65;;
62861;SDS011;48953;53.110;5.592;2023-07-31T05:14:42;20.70;;;4.80;;
62861;SDS011;48953;53.110;5.592;2023-07-31T05:17:08;16.42;;;4.45;;
62861;SDS011;48953;53.110;5.592;2023-07-31T05:19:34;12.57;;;4.78;;
62861;SDS011;48953;53.110;5.592;2023-07-31T05:22:00;15.52;;;4.60;;
62861;SDS011;48953;53.110;5.592;2023-07-31T05:24:26;9.48;;;2.88;;
62861;SDS011;48953;53.110;5.592;2023-07-31T05:26:52;11.82;;;3.45;;
62861;SDS011;48953;53.110;5.592;2023-07-31T05:29:18;9.02;;;3.03;;
62861;SDS011;48953;53.110;5.592;2023-07-31T05:31:44;16.55;;;3.10;;
62861;SDS011;48953;53.110;5.592;2023-07-31T05:34:10;6.55;;;2.63;;
62861;SDS011;48953;53.110;5.592;2023-07-31T05:36:36;6.72;;;2.85;;
62861;SDS011;48953;53.110;5.592;2023-07-31T05:39:02;6.22;;;2.33;;
62861;SDS011;48953;53.110;5.592;2023-07-31T05:41:32;9.98;;;2.40;;
62861;SDS011;48953;53.110;5.592;2023-07-31T05:43:58;5.50;;;2.20;;
62861;SDS011;48953;53.110;5.592;2023-07-31T05:46:24;7.57;;;2.22;;
62861;SDS011;48953;53.110;5.592;2023-07-31T05:48:50;7.60;;;2.80;;
62861;SDS011;48953;53.110;5.592;2023-07-31T05:51:16;11.00;;;3.15;;
62861;SDS011;48953;53.110;5.592;2023-07-31T05:53:42;12.70;;;3.38;;
62861;SDS011;48953;53.110;5.592;2023-07-31T05:56:08;12.68;;;3.42;;
62861;SDS011;48953;53.110;5.592;2023-07-31T05:58:34;10.48;;;3.55;;
62861;SDS011;48953;53.110;5.592;2023-07-31T06:01:00;13.27;;;3.63;;
62861;SDS011;48953;53.110;5.592;2023-07-31T06:03:26;12.18;;;3.08;;
62861;SDS011;48953;53.110;5.592;2023-07-31T06:05:52;11.63;;;3.20;;
62861;SDS011;48953;53.110;5.592;2023-07-31T06:08:18;11.75;;;3.40;;
62861;SDS011;48953;53.110;5.592;2023-07-31T06:10:44;13.20;;;3.50;;
62861;SDS011;48953;53.110;5.592;2023-07-31T06:13:10;12.40;;;3.70;;
62861;SDS011;48953;53.110;5.592;2023-07-31T06:15:36;12.35;;;3.42;;
62861;SDS011;48953;53.110;5.592;2023-07-31T06:18:02;8.70;;;3.58;;
62861;SDS011;48953;53.110;5.592;2023-07-31T06:20:29;13.07;;;3.70;;
62861;SDS011;48953;53.110;5.592;2023-07-31T06:22:55;11.88;;;3.63;;
62861;SDS011;48953;53.110;5.592;2023-07-31T06:25:21;15.15;;;3.10;;
62861;SDS011;48953;53.110;5.592;2023-07-31T06:27:47;11.20;;;3.08;;
62861;SDS011;48953;53.110;5.592;2023-07-31T06:30:14;6.53;;;2.33;;
62861;SDS011;48953;53.110;5.592;2023-07-31T06:32:40;6.57;;;2.08;;
62861;SDS011;48953;53.110;5.592;2023-07-31T06:35:06;6.47;;;2.28;;
62861;SDS011;48953;53.110;5.592;2023-07-31T06:37:33;6.22;;;1.90;;
62861;SDS011;48953;53.110;5.592;2023-07-31T06:39:59;3.58;;;1.50;;
62861;SDS011;48953;53.110;5.592;2023-07-31T06:42:25;5.70;;;1.75;;
62861;SDS011;48953;53.110;5.592;2023-07-31T06:44:51;5.20;;;1.63;;
62861;SDS011;48953;53.110;5.592;2023-07-31T06:47:17;4.28;;;1.25;;
62861;SDS011;48953;53.110;5.592;2023-07-31T06:49:43;3.08;;;1.55;;
62861;SDS011;48953;53.110;5.592;2023-07-31T06:52:09;3.05;;;1.13;;
62861;SDS011;48953;53.110;5.592;2023-07-31T06:54:36;4.35;;;1.40;;
62861;SDS011;48953;53.110;5.592;2023-07-31T06:57:02;2.88;;;1.23;;
62861;SDS011;48953;53.110;5.592;2023-07-31T06:59:28;2.30;;;1.10;;
62861;SDS011;48953;53.110;5.592;2023-07-31T07:01:54;4.18;;;1.50;;
62861;SDS011;48953;53.110;5.592;2023-07-31T07:04:20;3.08;;;1.20;;
62861;SDS011;48953;53.110;5.592;2023-07-31T07:06:46;2.63;;;1.00;;
62861;SDS011;48953;53.110;5.592;2023-07-31T07:09:12;2.00;;;0.90;;
62861;SDS011;48953;53.110;5.592;2023-07-31T07:11:39;3.25;;;1.20;;
62861;SDS011;48953;53.110;5.592;2023-07-31T07:14:05;3.22;;;0.90;;
62861;SDS011;48953;53.110;5.592;2023-07-31T07:16:31;3.17;;;1.00;;
62861;SDS011;48953;53.110;5.592;2023-07-31T07:18:57;2.78;;;0.90;;
62861;SDS011;48953;53.110;5.592;2023-07-31T07:21:23;0.75;;;0.43;;
62861;SDS011;48953;53.110;5.592;2023-07-31T07:23:49;1.65;;;0.50;;
62861;SDS011;48953;53.110;5.592;2023-07-31T07:26:15;0.88;;;0.32;;
62861;SDS011;48953;53.110;5.592;2023-07-31T07:28:41;1.33;;;0.50;;
62861;SDS011;48953;53.110;5.592;2023-07-31T07:31:07;0.77;;;0.50;;
62861;SDS011;48953;53.110;5.592;2023-07-31T07:33:33;1.55;;;0.65;;
62861;SDS011;48953;53.110;5.592;2023-07-31T07:36:02;1.25;;;0.40;;
62861;SDS011;48953;53.110;5.592;2023-07-31T07:38:28;1.13;;;0.40;;
62861;SDS011;48953;53.110;5.592;2023-07-31T07:40:54;0.38;;;0.35;;
62861;SDS011;48953;53.110;5.592;2023-07-31T07:43:20;1.75;;;0.40;;
62861;SDS011;48953;53.110;5.592;2023-07-31T07:45:46;2.42;;;0.40;;
62861;SDS011;48953;53.110;5.592;2023-07-31T07:48:12;3.28;;;0.40;;
62861;SDS011;48953;53.110;5.592;2023-07-31T07:50:38;3.30;;;0.50;;
62861;SDS011;48953;53.110;5.592;2023-07-31T07:53:04;2.58;;;0.68;;
62861;SDS011;48953;53.110;5.592;2023-07-31T07:55:31;1.83;;;0.40;;
62861;SDS011;48953;53.110;5.592;2023-07-31T07:57:57;2.22;;;0.50;;
62861;SDS011;48953;53.110;5.592;2023-07-31T08:00:23;1.95;;;0.40;;
62861;SDS011;48953;53.110;5.592;2023-07-31T08:02:49;2.35;;;0.40;;
62861;SDS011;48953;53.110;5.592;2023-07-31T08:05:15;2.70;;;0.50;;
62861;SDS011;48953;53.110;5.592;2023-07-31T08:07:42;1.83;;;0.60;;
62861;SDS011;48953;53.110;5.592;2023-07-31T08:10:08;3.28;;;0.50;;
62861;SDS011;48953;53.110;5.592;2023-07-31T08:12:34;2.03;;;0.50;;
62861;SDS011;48953;53.110;5.592;2023-07-31T08:15:00;2.72;;;0.70;;
62861;SDS011;48953;53.110;5.592;2023-07-31T08:17:26;3.60;;;0.60;;
62861;SDS011;48953;53.110;5.592;2023-07-31T08:19:52;4.00;;;0.60;;
62861;SDS011;48953;53.110;5.592;2023-07-31T08:22:18;1.77;;;0.50;;
62861;SDS011;48953;53.110;5.592;2023-07-31T08:24:44;2.17;;;0.50;;
62861;SDS011;48953;53.110;5.592;2023-07-31T08:27:10;2.92;;;0.70;;
62861;SDS011;48953;53.110;5.592;2023-07-31T08:29:36;2.55;;;0.63;;
62861;SDS011;48953;53.110;5.592;2023-07-31T08:32:02;3.92;;;0.43;;
62861;SDS011;48953;53.110;5.592;2023-07-31T08:34:28;3.75;;;0.50;;
62861;SDS011;48953;53.110;5.592;2023-07-31T08:36:54;3.78;;;0.75;;
62861;SDS011;48953;53.110;5.592;2023-07-31T08:39:20;1.85;;;0.32;;
62861;SDS011;48953;53.110;5.592;2023-07-31T08:41:47;3.40;;;0.30;;
62861;SDS011;48953;53.110;5.592;2023-07-31T08:44:13;3.40;;;0.32;;
62861;SDS011;48953;53.110;5.592;2023-07-31T08:46:39;1.30;;;0.40;;
62861;SDS011;48953;53.110;5.592;2023-07-31T08:49:06;1.45;;;0.30;;
62861;SDS011;48953;53.110;5.592;2023-07-31T08:51:36;2.35;;;0.40;;
62861;SDS011;48953;53.110;5.592;2023-07-31T08:54:02;1.08;;;0.30;;
62861;SDS011;48953;53.110;5.592;2023-07-31T08:56:33;1.10;;;0.30;;
62861;SDS011;48953;53.110;5.592;2023-07-31T08:59:01;0.70;;;0.55;;
62861;SDS011;48953;53.110;5.592;2023-07-31T09:01:29;1.60;;;0.50;;
62861;SDS011;48953;53.110;5.592;2023-07-31T09:03:56;1.73;;;0.63;;
62861;SDS011;48953;53.110;5.592;2023-07-31T09:06:23;2.33;;;0.68;;
62861;SDS011;48953;53.110;5.592;2023-07-31T09:08:51;3.28;;;0.77;;
62861;SDS011;48953;53.110;5.592;2023-07-31T09:11:17;2.88;;;0.75;;
62861;SDS011;48953;53.110;5.592;2023-07-31T09:13:44;2.00;;;0.50;;
62861;SDS011;48953;53.110;5.592;2023-07-31T09:16:10;2.53;;;0.60;;
62861;SDS011;48953;53.110;5.592;2023-07-31T09:18:55;2.72;;;0.47;;
62861;SDS011;48953;53.110;5.592;2023-07-31T09:21:23;2.25;;;0.50;;
62861;SDS011;48953;53.110;5.592;2023-07-31T09:23:49;1.98;;;0.57;;
62861;SDS011;48953;53.110;5.592;2023-07-31T09:26:34;2.20;;;0.93;;
62861;SDS011;48953;53.110;5.592;2023-07-31T09:29:01;1.80;;;0.30;;
62861;SDS011;48953;53.110;5.592;2023-07-31T09:31:31;0.85;;;0.45;;
62861;SDS011;48953;53.110;5.592;2023-07-31T09:33:57;1.80;;;0.40;;
62861;SDS011;48953;53.110;5.592;2023-07-31T09:36:23;2.35;;;0.40;;
62861;SDS011;48953;53.110;5.592;2023-07-31T09:38:49;2.28;;;0.47;;
62861;SDS011;48953;53.110;5.592;2023-07-31T09:41:15;1.48;;;0.32;;
62861;SDS011;48953;53.110;5.592;2023-07-31T09:43:41;1.35;;;0.25;;
62861;SDS011;48953;53.110;5.592;2023-07-31T09:46:18;1.60;;;0.30;;
62861;SDS011;48953;53.110;5.592;2023-07-31T09:48:46;1.13;;;0.40;;
62861;SDS011;48953;53.110;5.592;2023-07-31T09:51:12;2.25;;;0.47;;
62861;SDS011;48953;53.110;5.592;2023-07-31T09:53:38;1.85;;;0.40;;
62861;SDS011;48953;53.110;5.592;2023-07-31T09:56:04;1.15;;;0.50;;
62861;SDS011;48953;53.110;5.592;2023-07-31T09:58:30;2.13;;;0.70;;
62861;SDS011;48953;53.110;5.592;2023-07-31T10:00:59;7.40;;;1.10;;
62861;SDS011;48953;53.110;5.592;2023-07-31T10:03:25;7.55;;;1.35;;
62861;SDS011;48953;53.110;5.592;2023-07-31T10:05:52;3.97;;;1.00;;
62861;SDS011;48953;53.110;5.592;2023-07-31T10:08:20;2.13;;;1.05;;
62861;SDS011;48953;53.110;5.592;2023-07-31T10:10:47;2.50;;;0.88;;
62861;SDS011;48953;53.110;5.592;2023-07-31T10:13:13;3.53;;;1.35;;
62861;SDS011;48953;53.110;5.592;2023-07-31T10:15:39;3.53;;;0.93;;
62861;SDS011;48953;53.110;5.592;2023-07-31T10:18:07;5.57;;;1.08;;
62861;SDS011;48953;53.110;5.592;2023-07-31T10:20:34;3.83;;;1.10;;
62861;SDS011;48953;53.110;5.592;2023-07-31T10:23:00;4.53;;;0.98;;
62861;SDS011;48953;53.110;5.592;2023-07-31T10:25:26;3.17;;;1.20;;
62861;SDS011;48953;53.110;5.592;2023-07-31T10:27:52;2.90;;;0.88;;
62861;SDS011;48953;53.110;5.592;2023-07-31T10:30:21;1.75;;;0.60;;
62861;SDS011;48953;53.110;5.592;2023-07-31T10:32:48;3.30;;;0.70;;
62861;SDS011;48953;53.110;5.592;2023-07-31T10:35:15;3.25;;;0.70;;
62861;SDS011;48953;53.110;5.592;2023-07-31T10:37:41;1.55;;;0.90;;
62861;SDS011;48953;53.110;5.592;2023-07-31T10:42:47;3.53;;;1.23;;
62861;SDS011;48953;53.110;5.592;2023-07-31T10:45:13;5.82;;;1.45;;
62861;SDS011;48953;53.110;5.592;2023-07-31T10:47:43;4.47;;;1.92;;
62861;SDS011;48953;53.110;5.592;2023-07-31T10:52:38;6.40;;;1.25;;
62861;SDS011;48953;53.110;5.592;2023-07-31T10:56:06;5.95;;;1.30;;
62861;SDS011;48953;53.110;5.592;2023-07-31T10:58:19;5.30;;;1.33;;
62861;SDS011;48953;53.110;5.592;2023-07-31T11:00:46;4.45;;;1.17;;
62861;SDS011;48953;53.110;5.592;2023-07-31T11:03:15;2.40;;;1.10;;
62861;SDS011;48953;53.110;5.592;2023-07-31T11:05:51;2.78;;;1.00;;
62861;SDS011;48953;53.110;5.592;2023-07-31T11:10:47;2.33;;;0.70;;
62861;SDS011;48953;53.110;5.592;2023-07-31T11:13:14;1.83;;;0.70;;
62861;SDS011;48953;53.110;5.592;2023-07-31T11:15:40;7.25;;;1.20;;
62861;SDS011;48953;53.110;5.592;2023-07-31T11:18:06;4.30;;;1.20;;
62861;SDS011;48953;53.110;5.592;2023-07-31T11:20:33;5.38;;;1.08;;
62861;SDS011;48953;53.110;5.592;2023-07-31T11:23:03;3.20;;;0.85;;
62861;SDS011;48953;53.110;5.592;2023-07-31T11:25:30;3.42;;;1.38;;
62861;SDS011;48953;53.110;5.592;2023-07-31T11:27:56;5.38;;;1.60;;
62861;SDS011;48953;53.110;5.592;2023-07-31T11:30:22;4.03;;;1.45;;
62861;SDS011;48953;53.110;5.592;2023-07-31T11:32:49;3.40;;;1.60;;
62861;SDS011;48953;53.110;5.592;2023-07-31T11:35:16;7.72;;;2.08;;
62861;SDS011;48953;53.110;5.592;2023-07-31T11:37:43;10.10;;;2.00;;
62861;SDS011;48953;53.110;5.592;2023-07-31T11:40:09;7.95;;;1.90;;
62861;SDS011;48953;53.110;5.592;2023-07-31T11:42:35;12.60;;;1.92;;
62861;SDS011;48953;53.110;5.592;2023-07-31T11:45:05;4.95;;;2.15;;
62861;SDS011;48953;53.110;5.592;2023-07-31T11:47:34;5.20;;;1.88;;
62861;SDS011;48953;53.110;5.592;2023-07-31T11:50:01;9.95;;;2.20;;
62861;SDS011;48953;53.110;5.592;2023-07-31T11:52:36;3.75;;;1.67;;
62861;SDS011;48953;53.110;5.592;2023-07-31T11:55:03;8.73;;;2.40;;
62861;SDS011;48953;53.110;5.592;2023-07-31T11:57:30;7.13;;;1.90;;
62861;SDS011;48953;53.110;5.592;2023-07-31T11:59:56;8.15;;;2.08;;
62861;SDS011;48953;53.110;5.592;2023-07-31T12:02:23;6.75;;;2.03;;
62861;SDS011;48953;53.110;5.592;2023-07-31T12:04:49;4.43;;;1.80;;
62861;SDS011;48953;53.110;5.592;2023-07-31T12:07:15;5.20;;;1.77;;
62861;SDS011;48953;53.110;5.592;2023-07-31T12:09:53;5.88;;;1.70;;
62861;SDS011;48953;53.110;5.592;2023-07-31T12:12:23;6.15;;;1.75;;
62861;SDS011;48953;53.110;5.592;2023-07-31T12:17:16;9.00;;;1.98;;
62861;SDS011;48953;53.110;5.592;2023-07-31T12:19:42;7.63;;;1.98;;
62861;SDS011;48953;53.110;5.592;2023-07-31T12:22:12;8.20;;;1.85;;
62861;SDS011;48953;53.110;5.592;2023-07-31T12:24:39;3.92;;;1.45;;
62861;SDS011;48953;53.110;5.592;2023-07-31T12:27:11;10.55;;;2.63;;
62861;SDS011;48953;53.110;5.592;2023-07-31T12:29:38;6.43;;;2.28;;
62861;SDS011;48953;53.110;5.592;2023-07-31T12:32:05;7.43;;;2.08;;
62861;SDS011;48953;53.110;5.592;2023-07-31T12:34:43;5.77;;;2.43;;
62861;SDS011;48953;53.110;5.592;2023-07-31T12:37:09;6.65;;;2.33;;
62861;SDS011;48953;53.110;5.592;2023-07-31T12:39:35;10.43;;;2.45;;
62861;SDS011;48953;53.110;5.592;2023-07-31T12:42:01;6.53;;;1.73;;
62861;SDS011;48953;53.110;5.592;2023-07-31T12:44:27;5.65;;;1.90;;
62861;SDS011;48953;53.110;5.592;2023-07-31T12:46:53;8.18;;;2.30;;
62861;SDS011;48953;53.110;5.592;2023-07-31T12:49:19;5.97;;;2.42;;
62861;SDS011;48953;53.110;5.592;2023-07-31T12:51:45;7.10;;;2.17;;
62861;SDS011;48953;53.110;5.592;2023-07-31T12:54:11;4.63;;;1.50;;
62861;SDS011;48953;53.110;5.592;2023-07-31T12:56:38;6.80;;;2.10;;
62861;SDS011;48953;53.110;5.592;2023-07-31T12:59:04;6.28;;;1.90;;
62861;SDS011;48953;53.110;5.592;2023-07-31T13:01:30;6.72;;;1.77;;
62861;SDS011;48953;53.110;5.592;2023-07-31T13:03:56;4.20;;;1.58;;
62861;SDS011;48953;53.110;5.592;2023-07-31T13:06:23;5.57;;;1.80;;
62861;SDS011;48953;53.110;5.592;2023-07-31T13:08:51;6.63;;;2.00;;
62861;SDS011;48953;53.110;5.592;2023-07-31T13:11:17;6.32;;;2.00;;
62861;SDS011;48953;53.110;5.592;2023-07-31T13:13:43;6.68;;;1.67;;
62861;SDS011;48953;53.110;5.592;2023-07-31T13:16:09;5.60;;;1.90;;
62861;SDS011;48953;53.110;5.592;2023-07-31T13:18:35;3.97;;;1.60;;
62861;SDS011;48953;53.110;5.592;2023-07-31T13:21:01;5.97;;;2.45;;
62861;SDS011;48953;53.110;5.592;2023-07-31T13:23:27;9.52;;;2.20;;
62861;SDS011;48953;53.110;5.592;2023-07-31T13:25:53;7.93;;;2.30;;
62861;SDS011;48953;53.110;5.592;2023-07-31T13:28:19;6.78;;;2.17;;
62861;SDS011;48953;53.110;5.592;2023-07-31T13:30:45;6.70;;;2.58;;
62861;SDS011;48953;53.110;5.592;2023-07-31T13:33:11;6.65;;;2.40;;
62861;SDS011;48953;53.110;5.592;2023-07-31T13:35:37;6.15;;;2.72;;
62861;SDS011;48953;53.110;5.592;2023-07-31T13:38:03;8.65;;;2.47;;
62861;SDS011;48953;53.110;5.592;2023-07-31T13:40:30;5.70;;;2.28;;
62861;SDS011;48953;53.110;5.592;2023-07-31T13:42:56;8.05;;;2.72;;
62861;SDS011;48953;53.110;5.592;2023-07-31T13:45:22;8.23;;;2.92;;
62861;SDS011;48953;53.110;5.592;2023-07-31T13:47:49;10.48;;;2.67;;
62861;SDS011;48953;53.110;5.592;2023-07-31T13:50:16;7.95;;;2.72;;
62861;SDS011;48953;53.110;5.592;2023-07-31T13:52:44;8.38;;;2.40;;
62861;SDS011;48953;53.110;5.592;2023-07-31T13:55:11;5.70;;;2.40;;
62861;SDS011;48953;53.110;5.592;2023-07-31T13:57:37;7.20;;;2.70;;
62861;SDS011;48953;53.110;5.592;2023-07-31T14:00:03;10.55;;;2.50;;
62861;SDS011;48953;53.110;5.592;2023-07-31T14:02:29;6.10;;;2.20;;
62861;SDS011;48953;53.110;5.592;2023-07-31T14:04:55;7.88;;;2.20;;
62861;SDS011;48953;53.110;5.592;2023-07-31T14:07:21;5.25;;;1.90;;
62861;SDS011;48953;53.110;5.592;2023-07-31T14:09:47;7.93;;;2.03;;
62861;SDS011;48953;53.110;5.592;2023-07-31T14:12:13;7.60;;;2.25;;
62861;SDS011;48953;53.110;5.592;2023-07-31T14:14:39;8.02;;;2.35;;
62861;SDS011;48953;53.110;5.592;2023-07-31T14:17:05;7.07;;;2.25;;
62861;SDS011;48953;53.110;5.592;2023-07-31T14:19:31;6.45;;;2.05;;
62861;SDS011;48953;53.110;5.592;2023-07-31T14:22:00;7.22;;;2.15;;
62861;SDS011;48953;53.110;5.592;2023-07-31T14:24:26;7.40;;;2.10;;
62861;SDS011;48953;53.110;5.592;2023-07-31T14:26:52;7.03;;;2.00;;
62861;SDS011;48953;53.110;5.592;2023-07-31T14:29:18;7.78;;;1.90;;
62861;SDS011;48953;53.110;5.592;2023-07-31T14:31:44;5.53;;;1.85;;
62861;SDS011;48953;53.110;5.592;2023-07-31T14:34:12;5.80;;;1.77;;
62861;SDS011;48953;53.110;5.592;2023-07-31T14:36:39;5.72;;;1.70;;
62861;SDS011;48953;53.110;5.592;2023-07-31T14:39:05;5.30;;;1.65;;
62861;SDS011;48953;53.110;5.592;2023-07-31T14:41:31;5.18;;;1.63;;
62861;SDS011;48953;53.110;5.592;2023-07-31T14:43:57;4.80;;;1.70;;
62861;SDS011;48953;53.110;5.592;2023-07-31T14:46:30;7.43;;;2.05;;
62861;SDS011;48953;53.110;5.592;2023-07-31T14:48:55;8.38;;;2.03;;
62861;SDS011;48953;53.110;5.592;2023-07-31T14:51:22;6.43;;;2.38;;
62861;SDS011;48953;53.110;5.592;2023-07-31T14:53:48;7.68;;;2.00;;
62861;SDS011;48953;53.110;5.592;2023-07-31T14:56:14;6.97;;;2.33;;
62861;SDS011;48953;53.110;5.592;2023-07-31T14:58:40;5.07;;;1.73;;